sensor_id;sensor_type;location;lat;lon;timestamp;pressure;altitude;pressure_sealevel;temperature;humidity
57847;BME280;43675;50.030;21.952;2023-01-31T00:01:34;97727.83;;;1.04;77.89
57847;BME280;43675;50.030;21.952;2023-01-31T00:04:04;97728.00;;;1.03;78.05
57847;BME280;43675;50.030;21.952;2023-01-31T00:06:33;97730.94;;;1.04;78.24
57847;BME280;43675;50.030;21.952;2023-01-31T00:09:00;97727.90;;;1.04;78.29
57847;BME280;43675;50.030;21.952;2023-01-31T00:11:28;97726.40;;;1.04;78.23
57847;BME280;43675;50.030;21.952;2023-01-31T00:13:57;97730.63;;;1.05;78.42
57847;BME280;43675;50.030;21.952;2023-01-31T00:16:24;97734.42;;;1.01;78.35
57847;BME280;43675;50.030;21.952;2023-01-31T00:18:51;97738.98;;;0.98;78.55
57847;BME280;43675;50.030;21.952;2023-01-31T00:21:20;97739.85;;;0.95;78.55
57847;BME280;43675;50.030;21.952;2023-01-31T00:23:48;97734.83;;;0.91;78.72
57847;BME280;43675;50.030;21.952;2023-01-31T00:26:27;97738.45;;;0.90;78.86
57847;BME280;43675;50.030;21.952;2023-01-31T00:28:55;97743.61;;;0.88;78.99
57847;BME280;43675;50.030;21.952;2023-01-31T00:31:23;97747.19;;;0.85;79.05
57847;BME280;43675;50.030;21.952;2023-01-31T00:33:52;97748.67;;;0.81;79.27
57847;BME280;43675;50.030;21.952;2023-01-31T00:36:24;97753.92;;;0.80;79.32
57847;BME280;43675;50.030;21.952;2023-01-31T00:38:53;97761.98;;;0.77;79.44
57847;BME280;43675;50.030;21.952;2023-01-31T00:41:22;97761.83;;;0.75;79.67
57847;BME280;43675;50.030;21.952;2023-01-31T00:43:49;97761.89;;;0.75;79.72
57847;BME280;43675;50.030;21.952;2023-01-31T00:46:17;97766.00;;;0.76;79.77
57847;BME280;43675;50.030;21.952;2023-01-31T00:48:43;97772.21;;;0.75;79.87
57847;BME280;43675;50.030;21.952;2023-01-31T00:51:10;97769.28;;;0.75;80.02
57847;BME280;43675;50.030;21.952;2023-01-31T00:53:37;97774.46;;;0.76;80.03
57847;BME280;43675;50.030;21.952;2023-01-31T00:56:12;97784.55;;;0.77;80.07
57847;BME280;43675;50.030;21.952;2023-01-31T00:58:40;97782.55;;;0.78;80.17
57847;BME280;43675;50.030;21.952;2023-01-31T01:01:07;97778.95;;;0.80;80.32
57847;BME280;43675;50.030;21.952;2023-01-31T01:03:37;97775.13;;;0.81;80.31
57847;BME280;43675;50.030;21.952;2023-01-31T01:06:05;97786.42;;;0.84;80.20
57847;BME280;43675;50.030;21.952;2023-01-31T01:08:33;97785.61;;;0.83;80.28
57847;BME280;43675;50.030;21.952;2023-01-31T01:11:25;97782.03;;;0.83;80.31
57847;BME280;43675;50.030;21.952;2023-01-31T01:13:52;97781.83;;;0.85;80.37
57847;BME280;43675;50.030;21.952;2023-01-31T01:16:24;97789.80;;;0.88;80.19
57847;BME280;43675;50.030;21.952;2023-01-31T01:18:52;97798.34;;;0.89;80.36
57847;BME280;43675;50.030;21.952;2023-01-31T01:21:24;97798.72;;;0.91;80.37
57847;BME280;43675;50.030;21.952;2023-01-31T01:23:52;97804.95;;;0.94;80.28
57847;BME280;43675;50.030;21.952;2023-01-31T01:26:23;97805.59;;;0.98;80.23
57847;BME280;43675;50.030;21.952;2023-01-31T01:28:51;97802.83;;;1.00;80.24
57847;BME280;43675;50.030;21.952;2023-01-31T01:31:18;97809.89;;;1.02;80.28
57847;BME280;43675;50.030;21.952;2023-01-31T01:33:47;97805.83;;;1.02;80.36
57847;BME280;43675;50.030;21.952;2023-01-31T01:36:16;97810.34;;;1.02;80.38
57847;BME280;43675;50.030;21.952;2023-01-31T01:38:44;97813.38;;;1.02;80.31
57847;BME280;43675;50.030;21.952;2023-01-31T01:41:12;97812.91;;;1.03;80.31
57847;BME280;43675;50.030;21.952;2023-01-31T01:43:57;97811.00;;;1.03;80.31
57847;BME280;43675;50.030;21.952;2023-01-31T01:46:31;97813.62;;;1.06;80.23
57847;BME280;43675;50.030;21.952;2023-01-31T01:49:14;97812.45;;;1.07;80.18
57847;BME280;43675;50.030;21.952;2023-01-31T01:51:42;97818.55;;;1.06;80.36
57847;BME280;43675;50.030;21.952;2023-01-31T01:54:15;97820.83;;;1.06;80.17
57847;BME280;43675;50.030;21.952;2023-01-31T01:56:46;97823.66;;;1.08;80.16
57847;BME280;43675;50.030;21.952;2023-01-31T01:59:19;97823.77;;;1.10;80.06
57847;BME280;43675;50.030;21.952;2023-01-31T02:01:50;97823.73;;;1.12;79.99
57847;BME280;43675;50.030;21.952;2023-01-31T02:04:22;97828.65;;;1.11;79.96
57847;BME280;43675;50.030;21.952;2023-01-31T02:06:51;97829.14;;;1.12;80.14
57847;BME280;43675;50.030;21.952;2023-01-31T02:09:33;97825.89;;;1.12;80.09
57847;BME280;43675;50.030;21.952;2023-01-31T02:12:02;97825.59;;;1.14;80.05
57847;BME280;43675;50.030;21.952;2023-01-31T02:14:29;97827.06;;;1.16;79.90
57847;BME280;43675;50.030;21.952;2023-01-31T02:16:56;97831.48;;;1.17;80.10
57847;BME280;43675;50.030;21.952;2023-01-31T02:19:38;97824.92;;;1.19;79.93
57847;BME280;43675;50.030;21.952;2023-01-31T02:25:20;97824.30;;;1.25;80.04
57847;BME280;43675;50.030;21.952;2023-01-31T02:33:30;97833.38;;;1.33;79.84
57847;BME280;43675;50.030;21.952;2023-01-31T02:36:07;97829.92;;;1.33;79.69
57847;BME280;43675;50.030;21.952;2023-01-31T02:41:27;97838.73;;;1.34;79.60
57847;BME280;43675;50.030;21.952;2023-01-31T02:47:05;97834.92;;;1.32;79.52
57847;BME280;43675;50.030;21.952;2023-01-31T02:52:48;97846.65;;;1.31;79.68
57847;BME280;43675;50.030;21.952;2023-01-31T02:55:27;97852.15;;;1.29;79.64
57847;BME280;43675;50.030;21.952;2023-01-31T02:57:56;97848.66;;;1.27;79.57
57847;BME280;43675;50.030;21.952;2023-01-31T03:00:25;97847.71;;;1.26;79.52
57847;BME280;43675;50.030;21.952;2023-01-31T03:02:52;97852.54;;;1.26;79.71
57847;BME280;43675;50.030;21.952;2023-01-31T03:05:19;97856.98;;;1.27;79.57
57847;BME280;43675;50.030;21.952;2023-01-31T03:07:51;97858.36;;;1.27;79.75
57847;BME280;43675;50.030;21.952;2023-01-31T03:18:50;97879.47;;;1.29;79.51
57847;BME280;43675;50.030;21.952;2023-01-31T03:21:15;97873.40;;;1.33;79.50
57847;BME280;43675;50.030;21.952;2023-01-31T03:23:45;97880.02;;;1.39;79.44
57847;BME280;43675;50.030;21.952;2023-01-31T03:26:14;97890.65;;;1.42;79.62
57847;BME280;43675;50.030;21.952;2023-01-31T03:28:42;97891.58;;;1.46;79.46
57847;BME280;43675;50.030;21.952;2023-01-31T03:31:22;97891.17;;;1.44;79.33
57847;BME280;43675;50.030;21.952;2023-01-31T03:33:55;97894.20;;;1.38;79.37
57847;BME280;43675;50.030;21.952;2023-01-31T03:41:48;97911.08;;;1.31;79.42
57847;BME280;43675;50.030;21.952;2023-01-31T03:46:57;97923.09;;;1.30;79.45
57847;BME280;43675;50.030;21.952;2023-01-31T03:49:26;97925.58;;;1.26;79.55
57847;BME280;43675;50.030;21.952;2023-01-31T03:52:00;97928.80;;;1.23;79.54
57847;BME280;43675;50.030;21.952;2023-01-31T03:54:35;97936.13;;;1.21;79.71
57847;BME280;43675;50.030;21.952;2023-01-31T03:57:11;97939.91;;;1.17;79.69
57847;BME280;43675;50.030;21.952;2023-01-31T03:59:42;97932.68;;;1.14;79.87
57847;BME280;43675;50.030;21.952;2023-01-31T04:02:14;97939.19;;;1.09;79.84
57847;BME280;43675;50.030;21.952;2023-01-31T04:04:59;97942.52;;;1.05;80.04
57847;BME280;43675;50.030;21.952;2023-01-31T04:07:28;97947.41;;;1.02;80.30
57847;BME280;43675;50.030;21.952;2023-01-31T04:09:55;97951.98;;;1.02;80.32
57847;BME280;43675;50.030;21.952;2023-01-31T04:12:22;97955.20;;;1.02;80.41
57847;BME280;43675;50.030;21.952;2023-01-31T04:14:48;97954.74;;;1.01;80.36
57847;BME280;43675;50.030;21.952;2023-01-31T04:17:15;97957.33;;;1.02;80.43
57847;BME280;43675;50.030;21.952;2023-01-31T04:19:42;97962.00;;;1.04;80.53
57847;BME280;43675;50.030;21.952;2023-01-31T04:22:08;97959.88;;;1.06;80.46
57847;BME280;43675;50.030;21.952;2023-01-31T04:24:35;97962.88;;;1.07;80.55
57847;BME280;43675;50.030;21.952;2023-01-31T04:27:01;97963.63;;;1.08;80.61
57847;BME280;43675;50.030;21.952;2023-01-31T04:29:28;97965.14;;;1.10;80.59
57847;BME280;43675;50.030;21.952;2023-01-31T04:31:54;97966.58;;;1.12;80.56
57847;BME280;43675;50.030;21.952;2023-01-31T04:34:21;97970.09;;;1.12;80.53
57847;BME280;43675;50.030;21.952;2023-01-31T04:36:47;97971.27;;;1.11;80.62
57847;BME280;43675;50.030;21.952;2023-01-31T04:39:14;97976.00;;;1.11;80.64
57847;BME280;43675;50.030;21.952;2023-01-31T04:41:41;97980.66;;;1.12;80.63
57847;BME280;43675;50.030;21.952;2023-01-31T04:44:07;97986.86;;;1.11;80.62
57847;BME280;43675;50.030;21.952;2023-01-31T04:46:34;97998.66;;;1.11;80.56
57847;BME280;43675;50.030;21.952;2023-01-31T04:49:00;98001.90;;;1.11;80.56
57847;BME280;43675;50.030;21.952;2023-01-31T04:51:27;98015.95;;;1.10;80.48
57847;BME280;43675;50.030;21.952;2023-01-31T04:53:53;98010.89;;;1.02;80.50
57847;BME280;43675;50.030;21.952;2023-01-31T04:56:20;98015.20;;;0.96;80.64
57847;BME280;43675;50.030;21.952;2023-01-31T04:58:47;98010.71;;;0.93;80.78
57847;BME280;43675;50.030;21.952;2023-01-31T05:01:13;98009.63;;;0.94;80.70
57847;BME280;43675;50.030;21.952;2023-01-31T05:03:40;98009.34;;;0.93;80.91
57847;BME280;43675;50.030;21.952;2023-01-31T05:06:06;98011.65;;;0.90;80.77
57847;BME280;43675;50.030;21.952;2023-01-31T05:08:33;98010.03;;;0.88;80.96
57847;BME280;43675;50.030;21.952;2023-01-31T05:11:03;98006.58;;;0.86;81.04
57847;BME280;43675;50.030;21.952;2023-01-31T05:13:30;98007.48;;;0.88;80.99
57847;BME280;43675;50.030;21.952;2023-01-31T05:15:57;98014.00;;;0.88;80.91
57847;BME280;43675;50.030;21.952;2023-01-31T05:18:24;98022.23;;;0.85;81.03
57847;BME280;43675;50.030;21.952;2023-01-31T05:20:51;98021.84;;;0.84;81.15
57847;BME280;43675;50.030;21.952;2023-01-31T05:23:17;98029.27;;;0.85;81.17
57847;BME280;43675;50.030;21.952;2023-01-31T05:25:48;98030.94;;;0.87;81.22
57847;BME280;43675;50.030;21.952;2023-01-31T05:28:15;98032.59;;;0.90;81.14
57847;BME280;43675;50.030;21.952;2023-01-31T05:30:41;98036.88;;;0.94;81.40
57847;BME280;43675;50.030;21.952;2023-01-31T05:33:08;98037.52;;;0.97;81.36
57847;BME280;43675;50.030;21.952;2023-01-31T05:35:34;98040.98;;;0.99;81.31
57847;BME280;43675;50.030;21.952;2023-01-31T05:38:01;98043.00;;;1.01;81.29
57847;BME280;43675;50.030;21.952;2023-01-31T05:40:27;98053.70;;;1.02;81.30
57847;BME280;43675;50.030;21.952;2023-01-31T05:42:56;98052.94;;;1.02;81.39
57847;BME280;43675;50.030;21.952;2023-01-31T05:45:22;98060.84;;;1.02;81.15
57847;BME280;43675;50.030;21.952;2023-01-31T05:47:49;98065.51;;;1.03;81.14
57847;BME280;43675;50.030;21.952;2023-01-31T05:50:17;98064.71;;;1.04;81.07
57847;BME280;43675;50.030;21.952;2023-01-31T05:52:55;98073.48;;;1.04;81.08
57847;BME280;43675;50.030;21.952;2023-01-31T05:55:22;98078.62;;;1.07;81.13
57847;BME280;43675;50.030;21.952;2023-01-31T05:57:48;98081.39;;;1.11;80.94
57847;BME280;43675;50.030;21.952;2023-01-31T06:00:15;98080.63;;;1.10;80.93
57847;BME280;43675;50.030;21.952;2023-01-31T06:02:42;98088.85;;;1.08;80.75
57847;BME280;43675;50.030;21.952;2023-01-31T06:05:09;98095.64;;;1.06;80.77
57847;BME280;43675;50.030;21.952;2023-01-31T06:07:37;98094.02;;;1.07;80.92
57847;BME280;43675;50.030;21.952;2023-01-31T06:10:06;98100.85;;;1.07;80.81
57847;BME280;43675;50.030;21.952;2023-01-31T06:12:34;98098.20;;;1.08;80.74
57847;BME280;43675;50.030;21.952;2023-01-31T06:15:00;98102.80;;;1.10;80.86
57847;BME280;43675;50.030;21.952;2023-01-31T06:17:27;98110.95;;;1.13;80.70
57847;BME280;43675;50.030;21.952;2023-01-31T06:19:54;98113.11;;;1.15;80.71
57847;BME280;43675;50.030;21.952;2023-01-31T06:22:20;98120.49;;;1.14;80.65
57847;BME280;43675;50.030;21.952;2023-01-31T06:24:47;98123.73;;;1.13;80.65
57847;BME280;43675;50.030;21.952;2023-01-31T06:27:13;98127.39;;;1.14;80.50
57847;BME280;43675;50.030;21.952;2023-01-31T06:29:40;98139.36;;;1.14;80.62
57847;BME280;43675;50.030;21.952;2023-01-31T06:32:06;98139.11;;;1.14;80.47
57847;BME280;43675;50.030;21.952;2023-01-31T06:34:33;98147.41;;;1.16;80.44
57847;BME280;43675;50.030;21.952;2023-01-31T06:36:59;98148.50;;;1.15;80.33
57847;BME280;43675;50.030;21.952;2023-01-31T06:39:26;98155.95;;;1.15;80.38
57847;BME280;43675;50.030;21.952;2023-01-31T06:41:52;98154.34;;;1.15;80.17
57847;BME280;43675;50.030;21.952;2023-01-31T06:44:19;98164.25;;;1.16;80.29
57847;BME280;43675;50.030;21.952;2023-01-31T06:46:46;98172.64;;;1.18;80.07
57847;BME280;43675;50.030;21.952;2023-01-31T06:49:12;98177.27;;;1.20;80.15
57847;BME280;43675;50.030;21.952;2023-01-31T06:51:39;98181.77;;;1.21;80.10
57847;BME280;43675;50.030;21.952;2023-01-31T06:54:05;98181.30;;;1.22;80.05
57847;BME280;43675;50.030;21.952;2023-01-31T06:56:32;98183.14;;;1.22;80.01
57847;BME280;43675;50.030;21.952;2023-01-31T06:58:58;98188.17;;;1.22;79.96
57847;BME280;43675;50.030;21.952;2023-01-31T07:01:25;98193.16;;;1.21;80.18
57847;BME280;43675;50.030;21.952;2023-01-31T07:03:51;98194.10;;;1.22;79.93
57847;BME280;43675;50.030;21.952;2023-01-31T07:06:18;98195.20;;;1.25;80.10
57847;BME280;43675;50.030;21.952;2023-01-31T07:08:45;98197.02;;;1.28;80.02
57847;BME280;43675;50.030;21.952;2023-01-31T07:11:12;98203.13;;;1.31;79.85
57847;BME280;43675;50.030;21.952;2023-01-31T07:13:38;98206.13;;;1.36;79.72
57847;BME280;43675;50.030;21.952;2023-01-31T07:16:05;98205.46;;;1.37;79.70
57847;BME280;43675;50.030;21.952;2023-01-31T07:18:32;98210.09;;;1.40;79.70
57847;BME280;43675;50.030;21.952;2023-01-31T07:20:58;98215.96;;;1.43;79.65
57847;BME280;43675;50.030;21.952;2023-01-31T07:23:25;98217.89;;;1.41;79.60
57847;BME280;43675;50.030;21.952;2023-01-31T07:25:51;98228.43;;;1.38;79.46
57847;BME280;43675;50.030;21.952;2023-01-31T07:28:18;98226.31;;;1.35;79.50
57847;BME280;43675;50.030;21.952;2023-01-31T07:30:45;98233.65;;;1.32;79.57
57847;BME280;43675;50.030;21.952;2023-01-31T07:33:11;98233.36;;;1.26;79.50
57847;BME280;43675;50.030;21.952;2023-01-31T07:35:38;98241.04;;;1.22;79.66
57847;BME280;43675;50.030;21.952;2023-01-31T07:38:06;98240.96;;;1.22;79.85
57847;BME280;43675;50.030;21.952;2023-01-31T07:40:33;98250.45;;;1.24;79.90
57847;BME280;43675;50.030;21.952;2023-01-31T07:42:59;98249.78;;;1.27;79.87
57847;BME280;43675;50.030;21.952;2023-01-31T07:45:26;98248.80;;;1.28;79.74
57847;BME280;43675;50.030;21.952;2023-01-31T07:47:56;98249.61;;;1.27;79.91
57847;BME280;43675;50.030;21.952;2023-01-31T07:50:23;98254.12;;;1.26;80.02
57847;BME280;43675;50.030;21.952;2023-01-31T07:52:50;98254.48;;;1.29;80.04
57847;BME280;43675;50.030;21.952;2023-01-31T07:55:16;98257.24;;;1.28;79.97
57847;BME280;43675;50.030;21.952;2023-01-31T07:57:43;98264.86;;;1.29;79.95
57847;BME280;43675;50.030;21.952;2023-01-31T08:00:10;98266.77;;;1.29;79.99
57847;BME280;43675;50.030;21.952;2023-01-31T08:02:37;98274.66;;;1.33;80.05
57847;BME280;43675;50.030;21.952;2023-01-31T08:05:04;98281.35;;;1.33;80.12
57847;BME280;43675;50.030;21.952;2023-01-31T08:07:30;98287.34;;;1.33;79.85
57847;BME280;43675;50.030;21.952;2023-01-31T08:09:57;98287.59;;;1.33;79.86
57847;BME280;43675;50.030;21.952;2023-01-31T08:12:23;98292.67;;;1.34;79.98
57847;BME280;43675;50.030;21.952;2023-01-31T08:14:50;98295.11;;;1.38;80.08
57847;BME280;43675;50.030;21.952;2023-01-31T08:17:16;98300.28;;;1.37;80.00
57847;BME280;43675;50.030;21.952;2023-01-31T08:19:43;98308.73;;;1.36;79.78
57847;BME280;43675;50.030;21.952;2023-01-31T08:22:10;98309.66;;;1.32;79.79
57847;BME280;43675;50.030;21.952;2023-01-31T08:24:36;98315.74;;;1.28;79.74
57847;BME280;43675;50.030;21.952;2023-01-31T08:27:03;98317.95;;;1.22;79.97
57847;BME280;43675;50.030;21.952;2023-01-31T08:29:29;98320.86;;;1.20;79.98
57847;BME280;43675;50.030;21.952;2023-01-31T08:31:56;98322.90;;;1.17;79.97
57847;BME280;43675;50.030;21.952;2023-01-31T08:34:22;98320.12;;;1.15;80.23
57847;BME280;43675;50.030;21.952;2023-01-31T08:36:49;98326.80;;;1.16;80.18
57847;BME280;43675;50.030;21.952;2023-01-31T08:39:15;98324.33;;;1.21;80.15
57847;BME280;43675;50.030;21.952;2023-01-31T08:41:42;98326.81;;;1.30;80.15
57847;BME280;43675;50.030;21.952;2023-01-31T08:44:11;98321.14;;;1.42;80.38
57847;BME280;43675;50.030;21.952;2023-01-31T08:46:37;98324.92;;;1.57;80.29
57847;BME280;43675;50.030;21.952;2023-01-31T08:49:05;98322.63;;;1.70;79.94
57847;BME280;43675;50.030;21.952;2023-01-31T08:51:32;98325.27;;;1.76;79.84
57847;BME280;43675;50.030;21.952;2023-01-31T08:53:59;98326.06;;;1.83;79.66
57847;BME280;43675;50.030;21.952;2023-01-31T08:56:26;98335.45;;;1.93;79.46
57847;BME280;43675;50.030;21.952;2023-01-31T08:58:53;98341.48;;;1.97;79.09
57847;BME280;43675;50.030;21.952;2023-01-31T09:01:21;98338.45;;;2.02;78.96
57847;BME280;43675;50.030;21.952;2023-01-31T09:03:48;98346.59;;;2.10;78.84
57847;BME280;43675;50.030;21.952;2023-01-31T09:06:17;98348.04;;;2.14;78.94
57847;BME280;43675;50.030;21.952;2023-01-31T09:08:44;98349.67;;;2.17;78.81
57847;BME280;43675;50.030;21.952;2023-01-31T09:11:12;98352.91;;;2.23;78.72
57847;BME280;43675;50.030;21.952;2023-01-31T09:13:39;98354.48;;;2.30;78.36
57847;BME280;43675;50.030;21.952;2023-01-31T09:16:08;98354.73;;;2.35;78.17
57847;BME280;43675;50.030;21.952;2023-01-31T09:18:37;98353.52;;;2.39;78.23
57847;BME280;43675;50.030;21.952;2023-01-31T09:21:08;98358.20;;;2.45;77.68
57847;BME280;43675;50.030;21.952;2023-01-31T09:23:35;98352.62;;;2.49;77.51
57847;BME280;43675;50.030;21.952;2023-01-31T09:26:03;98359.82;;;2.53;77.21
57847;BME280;43675;50.030;21.952;2023-01-31T09:28:30;98359.48;;;2.49;77.36
57847;BME280;43675;50.030;21.952;2023-01-31T09:31:06;98364.36;;;2.55;77.14
57847;BME280;43675;50.030;21.952;2023-01-31T09:33:33;98365.27;;;2.61;76.74
57847;BME280;43675;50.030;21.952;2023-01-31T09:36:06;98361.27;;;2.66;76.65
57847;BME280;43675;50.030;21.952;2023-01-31T09:38:33;98368.74;;;2.67;76.51
57847;BME280;43675;50.030;21.952;2023-01-31T09:41:04;98366.91;;;2.71;76.22
57847;BME280;43675;50.030;21.952;2023-01-31T09:43:40;98375.35;;;2.71;76.20
57847;BME280;43675;50.030;21.952;2023-01-31T09:46:15;98380.30;;;2.74;76.11
57847;BME280;43675;50.030;21.952;2023-01-31T09:48:46;98382.54;;;2.78;75.71
57847;BME280;43675;50.030;21.952;2023-01-31T09:51:15;98389.98;;;2.78;75.66
57847;BME280;43675;50.030;21.952;2023-01-31T09:53:42;98388.14;;;2.74;75.58
57847;BME280;43675;50.030;21.952;2023-01-31T09:59:11;98377.75;;;2.75;75.25
57847;BME280;43675;50.030;21.952;2023-01-31T10:01:40;98374.42;;;2.70;75.15
57847;BME280;43675;50.030;21.952;2023-01-31T10:07:14;98381.25;;;2.82;74.93
57847;BME280;43675;50.030;21.952;2023-01-31T10:09:54;98378.11;;;2.91;74.85
57847;BME280;43675;50.030;21.952;2023-01-31T10:12:46;98378.35;;;3.02;74.45
57847;BME280;43675;50.030;21.952;2023-01-31T10:15:29;98377.91;;;3.05;74.27
57847;BME280;43675;50.030;21.952;2023-01-31T10:18:01;98379.39;;;2.95;73.96
57847;BME280;43675;50.030;21.952;2023-01-31T10:20:47;98373.20;;;2.98;74.11
57847;BME280;43675;50.030;21.952;2023-01-31T10:23:41;98365.11;;;2.99;73.95
57847;BME280;43675;50.030;21.952;2023-01-31T10:26:24;98364.05;;;2.98;73.77
57847;BME280;43675;50.030;21.952;2023-01-31T10:29:16;98362.26;;;3.03;74.02
57847;BME280;43675;50.030;21.952;2023-01-31T10:31:50;98362.38;;;3.09;73.45
57847;BME280;43675;50.030;21.952;2023-01-31T10:39:30;98368.75;;;3.43;72.97
57847;BME280;43675;50.030;21.952;2023-01-31T10:44:53;98367.96;;;3.58;72.65
57847;BME280;43675;50.030;21.952;2023-01-31T10:47:28;98362.69;;;3.55;72.54
57847;BME280;43675;50.030;21.952;2023-01-31T10:49:56;98361.89;;;3.52;72.12
57847;BME280;43675;50.030;21.952;2023-01-31T10:52:39;98362.81;;;3.56;72.32
57847;BME280;43675;50.030;21.952;2023-01-31T10:57:55;98365.19;;;3.82;71.70
57847;BME280;43675;50.030;21.952;2023-01-31T11:00:28;98366.04;;;3.92;71.37
57847;BME280;43675;50.030;21.952;2023-01-31T11:02:57;98356.40;;;3.97;70.80
57847;BME280;43675;50.030;21.952;2023-01-31T11:05:26;98354.95;;;4.00;70.69
57847;BME280;43675;50.030;21.952;2023-01-31T11:07:58;98356.40;;;3.97;70.39
57847;BME280;43675;50.030;21.952;2023-01-31T11:10:29;98360.54;;;3.87;70.27
57847;BME280;43675;50.030;21.952;2023-01-31T11:12:59;98363.25;;;3.60;69.93
57847;BME280;43675;50.030;21.952;2023-01-31T11:15:40;98363.87;;;3.39;70.32
57847;BME280;43675;50.030;21.952;2023-01-31T11:18:13;98371.85;;;3.29;70.54
57847;BME280;43675;50.030;21.952;2023-01-31T11:20:46;98374.69;;;3.28;70.54
57847;BME280;43675;50.030;21.952;2023-01-31T11:23:16;98377.92;;;3.35;70.84
57847;BME280;43675;50.030;21.952;2023-01-31T11:25:50;98371.54;;;3.39;70.57
57847;BME280;43675;50.030;21.952;2023-01-31T11:28:33;98375.72;;;3.44;70.39
57847;BME280;43675;50.030;21.952;2023-01-31T11:31:03;98370.79;;;3.45;70.29
57847;BME280;43675;50.030;21.952;2023-01-31T11:33:38;98371.17;;;3.51;70.29
57847;BME280;43675;50.030;21.952;2023-01-31T11:36:08;98367.95;;;3.57;70.08
57847;BME280;43675;50.030;21.952;2023-01-31T11:38:35;98371.82;;;3.62;70.22
57847;BME280;43675;50.030;21.952;2023-01-31T11:41:29;98367.98;;;3.61;69.63
57847;BME280;43675;50.030;21.952;2023-01-31T11:44:17;98370.57;;;3.66;69.49
57847;BME280;43675;50.030;21.952;2023-01-31T11:47:01;98370.04;;;3.65;69.31
57847;BME280;43675;50.030;21.952;2023-01-31T11:49:32;98368.48;;;3.51;69.08
57847;BME280;43675;50.030;21.952;2023-01-31T11:52:12;98370.00;;;3.40;69.34
57847;BME280;43675;50.030;21.952;2023-01-31T11:55:04;98370.38;;;3.28;69.15
57847;BME280;43675;50.030;21.952;2023-01-31T11:57:32;98366.09;;;3.20;69.26
57847;BME280;43675;50.030;21.952;2023-01-31T12:00:03;98366.21;;;3.11;69.22
57847;BME280;43675;50.030;21.952;2023-01-31T12:02:40;98371.29;;;3.04;69.48
57847;BME280;43675;50.030;21.952;2023-01-31T12:05:12;98376.85;;;2.97;69.57
57847;BME280;43675;50.030;21.952;2023-01-31T12:07:48;98373.61;;;2.90;69.90
57847;BME280;43675;50.030;21.952;2023-01-31T12:10:40;98374.27;;;2.82;69.80
57847;BME280;43675;50.030;21.952;2023-01-31T12:13:16;98375.12;;;2.78;69.87
57847;BME280;43675;50.030;21.952;2023-01-31T12:16:01;98378.37;;;2.71;69.96
57847;BME280;43675;50.030;21.952;2023-01-31T12:30:25;98381.01;;;2.73;69.73
57847;BME280;43675;50.030;21.952;2023-01-31T12:36:03;98375.30;;;2.87;69.58
57847;BME280;43675;50.030;21.952;2023-01-31T12:42:03;98380.75;;;2.86;69.42
57847;BME280;43675;50.030;21.952;2023-01-31T12:48:01;98386.67;;;2.79;69.60
57847;BME280;43675;50.030;21.952;2023-01-31T12:58:57;98402.67;;;2.64;69.64
57847;BME280;43675;50.030;21.952;2023-01-31T13:01:48;98406.35;;;2.54;69.56
57847;BME280;43675;50.030;21.952;2023-01-31T13:06:54;98406.62;;;2.42;69.98
57847;BME280;43675;50.030;21.952;2023-01-31T13:09:31;98405.34;;;2.44;69.97
57847;BME280;43675;50.030;21.952;2023-01-31T13:14:36;98401.88;;;2.57;69.80
57847;BME280;43675;50.030;21.952;2023-01-31T13:17:09;98401.55;;;2.55;69.80
57847;BME280;43675;50.030;21.952;2023-01-31T13:19:51;98400.55;;;2.53;69.64
57847;BME280;43675;50.030;21.952;2023-01-31T13:22:25;98403.15;;;2.49;69.69
57847;BME280;43675;50.030;21.952;2023-01-31T13:25:20;98407.56;;;2.46;69.43
57847;BME280;43675;50.030;21.952;2023-01-31T13:30:38;98407.50;;;2.27;69.85
57847;BME280;43675;50.030;21.952;2023-01-31T13:36:07;98404.96;;;2.09;70.20
57847;BME280;43675;50.030;21.952;2023-01-31T13:38:42;98398.31;;;2.02;70.60
57847;BME280;43675;50.030;21.952;2023-01-31T13:41:25;98404.10;;;1.99;70.89
57847;BME280;43675;50.030;21.952;2023-01-31T13:43:54;98397.96;;;1.93;70.99
57847;BME280;43675;50.030;21.952;2023-01-31T13:46:31;98402.95;;;1.90;71.16
57847;BME280;43675;50.030;21.952;2023-01-31T13:49:39;98400.84;;;1.90;71.40
57847;BME280;43675;50.030;21.952;2023-01-31T13:52:16;98391.21;;;1.89;71.35
57847;BME280;43675;50.030;21.952;2023-01-31T13:54:49;98385.00;;;1.85;71.15
57847;BME280;43675;50.030;21.952;2023-01-31T13:57:31;98384.30;;;1.82;71.40
57847;BME280;43675;50.030;21.952;2023-01-31T14:03:01;98386.92;;;1.79;71.10
57847;BME280;43675;50.030;21.952;2023-01-31T14:10:57;98397.92;;;1.78;71.19
57847;BME280;43675;50.030;21.952;2023-01-31T14:13:36;98400.88;;;1.80;70.81
57847;BME280;43675;50.030;21.952;2023-01-31T14:16:36;98401.95;;;1.84;70.79
57847;BME280;43675;50.030;21.952;2023-01-31T14:21:51;98397.86;;;1.82;70.55
57847;BME280;43675;50.030;21.952;2023-01-31T14:27:16;98403.13;;;1.76;70.31
57847;BME280;43675;50.030;21.952;2023-01-31T14:29:45;98394.80;;;1.73;70.17
57847;BME280;43675;50.030;21.952;2023-01-31T14:32:24;98391.41;;;1.73;70.02
57847;BME280;43675;50.030;21.952;2023-01-31T14:34:54;98393.86;;;1.75;70.10
57847;BME280;43675;50.030;21.952;2023-01-31T14:37:51;98393.96;;;1.77;70.01
57847;BME280;43675;50.030;21.952;2023-01-31T14:55:25;98405.52;;;1.76;69.21
57847;BME280;43675;50.030;21.952;2023-01-31T14:57:57;98403.71;;;1.77;69.16
57847;BME280;43675;50.030;21.952;2023-01-31T15:00:28;98409.40;;;1.78;69.24
57847;BME280;43675;50.030;21.952;2023-01-31T15:05:51;98408.32;;;1.75;69.03
57847;BME280;43675;50.030;21.952;2023-01-31T15:11:37;98406.06;;;1.71;68.89
57847;BME280;43675;50.030;21.952;2023-01-31T15:14:22;98401.20;;;1.69;68.89
57847;BME280;43675;50.030;21.952;2023-01-31T15:22:16;98406.10;;;1.68;68.76
57847;BME280;43675;50.030;21.952;2023-01-31T15:24:50;98409.08;;;1.65;68.65
57847;BME280;43675;50.030;21.952;2023-01-31T15:27:27;98407.69;;;1.62;68.76
57847;BME280;43675;50.030;21.952;2023-01-31T15:30:03;98408.66;;;1.62;68.81
57847;BME280;43675;50.030;21.952;2023-01-31T15:32:44;98402.10;;;1.58;68.92